createdAt,value
2022-09-15T00:01:40.380Z,12.40
2022-09-15T00:04:06.465Z,13.43
2022-09-15T00:06:33.602Z,12.98
2022-09-15T00:09:01.493Z,13.45
2022-09-15T00:11:30.830Z,14.10
2022-09-15T00:13:59.543Z,13.57
2022-09-15T00:16:27.651Z,13.75
2022-09-15T00:18:53.844Z,14.30
2022-09-15T00:21:25.243Z,14.05
2022-09-15T00:23:51.845Z,14.77
2022-09-15T00:26:20.992Z,14.65
2022-09-15T00:28:47.173Z,13.80
2022-09-15T00:31:21.421Z,15.00
2022-09-15T00:33:48.767Z,14.18
2022-09-15T00:36:15.513Z,14.05
2022-09-15T00:38:41.994Z,14.10
2022-09-15T00:41:11.293Z,14.32
2022-09-15T00:44:04.849Z,15.40
2022-09-15T00:46:34.414Z,14.30
2022-09-15T00:49:03.167Z,13.68
2022-09-15T00:51:53.166Z,14.13
2022-09-15T00:54:52.192Z,13.15
2022-09-15T00:57:43.841Z,13.32
2022-09-15T01:00:13.319Z,14.02
2022-09-15T01:02:44.898Z,14.73
2022-09-15T01:05:14.507Z,14.90
2022-09-15T01:07:51.084Z,15.48
2022-09-15T01:10:22.573Z,16.45
2022-09-15T01:12:48.390Z,16.58
2022-09-15T01:15:15.510Z,17.27
2022-09-15T01:17:47.346Z,15.48
2022-09-15T01:20:31.555Z,17.08
2022-09-15T01:23:25.025Z,17.80
2022-09-15T01:26:15.795Z,17.35
2022-09-15T01:29:38.716Z,18.55
2022-09-15T01:32:36.317Z,18.45
2022-09-15T01:35:06.209Z,18.38
2022-09-15T01:37:38.850Z,18.08
2022-09-15T01:40:06.210Z,17.55
2022-09-15T01:42:34.118Z,17.42
2022-09-15T01:45:08.571Z,18.55
2022-09-15T01:47:35.783Z,17.50
2022-09-15T01:50:07.916Z,17.55
2022-09-15T01:52:34.366Z,17.55
2022-09-15T01:55:06.987Z,18.25
2022-09-15T01:57:32.718Z,17.30
2022-09-15T01:59:59.628Z,17.75
2022-09-15T02:02:37.309Z,16.35
2022-09-15T02:05:10.591Z,16.55
2022-09-15T02:07:52.795Z,15.77
2022-09-15T02:10:29.343Z,16.65
2022-09-15T02:13:04.362Z,15.60
2022-09-15T02:15:43.144Z,14.05
2022-09-15T02:18:13.990Z,15.48
2022-09-15T02:20:49.257Z,14.98
2022-09-15T02:23:24.343Z,15.68
2022-09-15T02:25:55.292Z,15.00
2022-09-15T02:28:28.700Z,15.25
2022-09-15T02:30:57.936Z,15.35
2022-09-15T02:33:29.721Z,14.55
2022-09-15T02:35:55.696Z,12.50
2022-09-15T02:38:22.332Z,13.35
2022-09-15T02:40:48.468Z,12.35
2022-09-15T02:43:16.526Z,12.95
2022-09-15T02:45:42.928Z,12.20
2022-09-15T02:48:09.003Z,12.05
2022-09-15T02:50:36.668Z,12.35
2022-09-15T02:53:02.967Z,13.82
2022-09-15T02:55:28.932Z,14.98
2022-09-15T02:57:55.842Z,15.43
2022-09-15T03:00:21.804Z,16.60
2022-09-15T03:02:50.886Z,16.13
2022-09-15T03:05:19.504Z,15.65
2022-09-15T03:07:45.417Z,15.52
2022-09-15T03:10:12.837Z,14.20
2022-09-15T03:12:40.264Z,16.73
2022-09-15T03:15:08.455Z,16.23
2022-09-15T03:17:40.723Z,14.52
2022-09-15T03:20:09.151Z,14.35
2022-09-15T03:22:35.532Z,13.73
2022-09-15T03:25:01.509Z,13.68
2022-09-15T03:27:27.255Z,14.15
2022-09-15T03:29:53.066Z,14.00
2022-09-15T03:32:19.072Z,14.32
2022-09-15T03:34:45.120Z,13.25
2022-09-15T03:37:11.063Z,13.85
2022-09-15T03:39:37.097Z,15.82
2022-09-15T03:42:03.680Z,14.93
2022-09-15T03:44:29.600Z,14.40
2022-09-15T03:46:55.382Z,14.68
2022-09-15T03:49:21.366Z,14.38
2022-09-15T03:51:47.111Z,13.45
2022-09-15T03:54:12.917Z,14.15
2022-09-15T03:56:38.658Z,13.75
2022-09-15T03:59:05.915Z,13.68
2022-09-15T04:01:32.048Z,12.75
2022-09-15T04:04:02.116Z,12.48
2022-09-15T04:06:28.013Z,11.75
2022-09-15T04:08:54.276Z,11.32
2022-09-15T04:11:21.328Z,11.60
2022-09-15T04:13:47.849Z,11.02
2022-09-15T04:16:19.060Z,10.88
2022-09-15T04:18:45.501Z,12.32
2022-09-15T04:21:14.630Z,12.32
2022-09-15T04:23:41.378Z,12.05
2022-09-15T04:26:11.112Z,12.02
2022-09-15T04:28:40.531Z,11.77
2022-09-15T04:31:09.186Z,11.77
2022-09-15T04:33:38.855Z,12.35
2022-09-15T04:36:10.590Z,12.10
2022-09-15T04:38:36.990Z,12.43
2022-09-15T04:41:03.337Z,13.27
2022-09-15T04:43:29.536Z,13.13
2022-09-15T04:45:55.676Z,12.65
2022-09-15T04:48:22.757Z,13.82
2022-09-15T04:50:49.064Z,13.85
2022-09-15T04:53:15.384Z,14.35
2022-09-15T04:55:41.576Z,15.20
2022-09-15T04:58:07.897Z,15.73
2022-09-15T05:00:41.373Z,15.90
2022-09-15T05:03:07.191Z,16.33
2022-09-15T05:05:33.682Z,18.60
2022-09-15T05:08:00.216Z,18.88
2022-09-15T05:10:26.303Z,19.02
2022-09-15T05:12:53.022Z,20.00
2022-09-15T05:15:18.796Z,22.33
2022-09-15T05:17:44.672Z,24.83
2022-09-15T05:20:10.520Z,25.83
2022-09-15T05:22:40.932Z,26.10
2022-09-15T05:25:07.877Z,26.35
2022-09-15T05:27:33.756Z,23.77
2022-09-15T05:30:23.452Z,21.70
2022-09-15T05:32:45.333Z,21.73
2022-09-15T05:35:11.061Z,20.70
2022-09-15T05:37:36.793Z,20.10
2022-09-15T05:40:08.084Z,19.95
2022-09-15T05:42:34.707Z,21.20
2022-09-15T05:45:00.477Z,19.98
2022-09-15T05:47:26.201Z,19.08
2022-09-15T05:49:53.063Z,19.85
2022-09-15T05:52:18.974Z,19.17
2022-09-15T05:54:44.780Z,19.20
2022-09-15T05:57:10.727Z,19.75
2022-09-15T05:59:38.474Z,18.23
2022-09-15T06:02:04.621Z,19.13
2022-09-15T06:04:30.556Z,19.83
2022-09-15T06:06:56.307Z,19.50
2022-09-15T06:09:22.153Z,17.60
2022-09-15T06:11:47.922Z,19.63
2022-09-15T06:14:13.811Z,18.08
2022-09-15T06:16:39.656Z,19.27
2022-09-15T06:19:05.718Z,17.88
2022-09-15T06:21:32.760Z,18.55
2022-09-15T06:24:02.555Z,18.77
2022-09-15T06:26:29.086Z,19.05
2022-09-15T06:29:01.190Z,19.55
2022-09-15T06:31:30.686Z,19.30
2022-09-15T06:33:56.973Z,20.83
2022-09-15T06:36:26.535Z,20.60
2022-09-15T06:38:53.315Z,19.90
2022-09-15T06:41:19.269Z,23.52
2022-09-15T06:43:46.112Z,23.27
2022-09-15T06:46:17.606Z,23.30
2022-09-15T06:48:47.546Z,27.30
2022-09-15T06:51:16.597Z,26.92
2022-09-15T06:53:43.288Z,29.25
2022-09-15T06:56:12.358Z,28.52
2022-09-15T06:58:39.757Z,30.17
2022-09-15T07:01:09.372Z,31.77
2022-09-15T07:03:36.758Z,31.27
2022-09-15T07:06:03.662Z,30.15
2022-09-15T07:08:30.039Z,29.52
2022-09-15T07:10:56.475Z,25.42
2022-09-15T07:13:22.958Z,28.08
2022-09-15T07:15:53.607Z,25.65
2022-09-15T07:18:19.817Z,25.23
2022-09-15T07:20:45.808Z,25.00
2022-09-15T07:23:11.649Z,23.95
2022-09-15T07:25:37.454Z,25.23
2022-09-15T07:28:03.682Z,22.55
2022-09-15T07:30:29.507Z,22.50
2022-09-15T07:32:55.242Z,20.13
2022-09-15T07:35:21.073Z,22.00
2022-09-15T07:37:51.250Z,17.08
2022-09-15T07:40:21.363Z,18.25
2022-09-15T07:42:47.140Z,16.15
2022-09-15T07:45:13.046Z,15.23
2022-09-15T07:47:38.972Z,15.18
2022-09-15T07:50:05.734Z,15.27
2022-09-15T07:52:31.674Z,13.43
2022-09-15T07:54:57.495Z,14.30
2022-09-15T07:57:23.284Z,12.65
2022-09-15T07:59:49.165Z,12.55
2022-09-15T08:02:20.119Z,11.95
2022-09-15T08:04:46.392Z,11.88
2022-09-15T08:07:12.924Z,11.55
2022-09-15T08:09:39.875Z,12.18
2022-09-15T08:12:06.959Z,12.32
2022-09-15T08:14:33.604Z,10.73
2022-09-15T08:17:07.013Z,10.00
2022-09-15T08:19:35.344Z,10.50
2022-09-15T08:22:01.718Z,10.00
2022-09-15T08:24:28.497Z,10.45
2022-09-15T08:26:54.619Z,9.38
2022-09-15T08:29:20.761Z,9.82
2022-09-15T08:31:47.571Z,9.80
2022-09-15T08:34:15.756Z,8.93
2022-09-15T08:36:42.197Z,8.98
2022-09-15T08:39:11.439Z,7.18
2022-09-15T08:41:42.716Z,6.38
2022-09-15T08:44:23.004Z,6.75
2022-09-15T08:47:01.767Z,7.53
2022-09-15T08:49:51.199Z,6.63
2022-09-15T08:52:34.563Z,6.53
2022-09-15T08:55:12.571Z,7.25
2022-09-15T08:57:38.590Z,6.63
2022-09-15T09:00:06.001Z,6.40
2022-09-15T09:02:55.317Z,6.57
2022-09-15T09:05:28.739Z,4.75
2022-09-15T09:08:08.872Z,5.60
2022-09-15T09:10:48.325Z,5.53
2022-09-15T09:13:23.499Z,5.32
2022-09-15T09:15:55.425Z,5.28
2022-09-15T09:18:29.794Z,3.78
2022-09-15T09:21:20.316Z,3.42
2022-09-15T09:24:00.787Z,4.55
2022-09-15T09:26:30.234Z,4.38
2022-09-15T09:29:01.849Z,4.65
2022-09-15T09:31:28.734Z,5.05
2022-09-15T09:34:17.655Z,4.82
2022-09-15T09:36:43.419Z,3.33
2022-09-15T09:39:14.534Z,2.58
2022-09-15T09:41:41.700Z,1.95
2022-09-15T09:44:13.444Z,2.00
2022-09-15T09:46:40.364Z,2.20
2022-09-15T09:49:20.248Z,2.22
2022-09-15T09:51:53.036Z,1.60
2022-09-15T09:54:21.240Z,1.80
2022-09-15T09:56:49.108Z,1.90
2022-09-15T09:59:34.210Z,2.35
2022-09-15T10:02:15.069Z,1.55
2022-09-15T10:04:43.767Z,2.13
2022-09-15T10:07:10.806Z,2.05
2022-09-15T10:09:37.386Z,1.67
2022-09-15T10:12:05.240Z,2.33
2022-09-15T10:14:32.726Z,2.03
2022-09-15T10:17:09.930Z,1.73
2022-09-15T10:19:45.368Z,1.52
2022-09-15T10:24:56.771Z,1.67
2022-09-15T10:27:34.440Z,1.70
2022-09-15T10:30:12.820Z,1.63
2022-09-15T10:32:39.646Z,1.60
2022-09-15T10:35:20.005Z,1.73
2022-09-15T10:38:04.560Z,2.28
2022-09-15T10:40:33.425Z,1.60
2022-09-15T10:43:32.310Z,1.65
2022-09-15T10:46:09.329Z,1.30
2022-09-15T10:48:53.698Z,1.60
2022-09-15T10:51:45.791Z,1.65
2022-09-15T10:54:37.000Z,1.48
2022-09-15T10:57:34.300Z,1.25
2022-09-15T11:00:09.606Z,1.30
2022-09-15T11:05:32.525Z,1.00
2022-09-15T11:08:16.188Z,1.30
2022-09-15T11:10:51.055Z,1.17
2022-09-15T11:13:26.064Z,1.55
2022-09-15T11:16:16.756Z,1.27
2022-09-15T11:19:01.114Z,1.48
2022-09-15T11:21:44.120Z,2.08
2022-09-15T11:24:43.715Z,1.40
2022-09-15T11:27:29.681Z,1.92
2022-09-15T11:30:04.907Z,2.00
2022-09-15T11:32:45.684Z,1.70
2022-09-15T11:35:41.644Z,1.90
2022-09-15T11:38:25.870Z,1.75
2022-09-15T11:41:16.255Z,1.70
2022-09-15T11:44:00.574Z,2.00
2022-09-15T11:46:51.892Z,1.60
2022-09-15T11:49:45.500Z,1.15
2022-09-15T11:52:14.099Z,1.92
2022-09-15T11:54:50.499Z,1.70
2022-09-15T11:57:22.651Z,1.40
2022-09-15T11:59:56.038Z,1.83
2022-09-15T12:02:26.035Z,2.03
2022-09-15T12:05:11.791Z,1.95
2022-09-15T12:07:46.005Z,2.00
2022-09-15T12:10:22.323Z,1.85
2022-09-15T12:12:50.759Z,1.80
2022-09-15T12:15:26.264Z,1.83
2022-09-15T12:18:41.947Z,1.98
2022-09-15T12:21:42.449Z,2.33
2022-09-15T12:24:22.624Z,2.45
2022-09-15T12:26:48.840Z,1.70
2022-09-15T12:29:20.597Z,1.70
2022-09-15T12:31:46.588Z,1.92
2022-09-15T12:34:37.709Z,1.83
2022-09-15T12:37:12.036Z,1.90
2022-09-15T12:39:47.844Z,2.50
2022-09-15T12:42:22.819Z,2.28
2022-09-15T12:45:10.895Z,1.80
2022-09-15T12:47:48.337Z,2.10
2022-09-15T12:50:16.824Z,1.85
2022-09-15T12:52:49.948Z,1.85
2022-09-15T12:55:20.479Z,1.75
2022-09-15T12:57:56.378Z,2.00
2022-09-15T13:02:50.054Z,2.10
2022-09-15T13:05:38.822Z,2.38
2022-09-15T13:08:11.309Z,2.35
2022-09-15T13:11:08.765Z,2.20
2022-09-15T13:13:45.569Z,2.10
2022-09-15T13:16:45.734Z,1.95
2022-09-15T13:19:23.805Z,2.13
2022-09-15T13:22:11.193Z,2.55
2022-09-15T13:25:12.924Z,2.80
2022-09-15T13:27:52.765Z,1.75
2022-09-15T13:30:43.266Z,1.80
2022-09-15T13:40:05.700Z,2.40
2022-09-15T13:43:06.775Z,1.88
2022-09-15T13:45:38.767Z,2.00
2022-09-15T13:48:25.715Z,2.20
2022-09-15T13:51:05.318Z,1.90
2022-09-15T13:53:44.862Z,2.90
2022-09-15T13:56:34.889Z,2.58
2022-09-15T13:59:11.694Z,2.67
2022-09-15T14:01:41.479Z,3.25
2022-09-15T14:04:13.804Z,2.85
2022-09-15T14:06:42.075Z,3.00
2022-09-15T14:09:39.034Z,2.70
2022-09-15T14:12:10.052Z,2.85
2022-09-15T14:14:41.072Z,2.85
2022-09-15T14:17:24.279Z,2.60
2022-09-15T14:19:55.132Z,2.53
2022-09-15T14:22:21.151Z,4.30
2022-09-15T14:24:47.099Z,2.60
2022-09-15T14:27:21.308Z,2.80
2022-09-15T14:29:49.566Z,3.03
2022-09-15T14:32:16.893Z,2.50
2022-09-15T14:34:44.033Z,2.22
2022-09-15T14:37:23.244Z,2.50
2022-09-15T14:39:55.525Z,2.65
2022-09-15T14:42:29.028Z,2.88
2022-09-15T14:50:09.056Z,2.65
2022-09-15T14:52:42.437Z,2.42
2022-09-15T14:55:29.843Z,2.97
2022-09-15T14:58:01.444Z,2.95
2022-09-15T15:00:33.256Z,2.92
2022-09-15T15:03:06.110Z,2.70
2022-09-15T15:05:37.865Z,2.30
2022-09-15T15:08:06.444Z,2.40
2022-09-15T15:10:35.859Z,1.55
2022-09-15T15:13:08.208Z,2.28
2022-09-15T15:15:37.062Z,2.42
2022-09-15T15:18:28.204Z,2.08
2022-09-15T15:20:57.343Z,2.85
2022-09-15T15:23:25.161Z,3.65
2022-09-15T15:25:51.614Z,4.40
2022-09-15T15:28:35.042Z,4.10
2022-09-15T15:31:20.039Z,4.25
2022-09-15T15:33:51.475Z,4.22
2022-09-15T15:36:21.608Z,4.03
2022-09-15T15:38:52.780Z,4.10
2022-09-15T15:41:22.156Z,2.92
2022-09-15T15:44:14.255Z,3.85
2022-09-15T15:47:02.967Z,2.50
2022-09-15T15:49:31.835Z,2.50
2022-09-15T15:52:00.062Z,2.13
2022-09-15T15:54:26.590Z,2.13
2022-09-15T15:56:52.854Z,2.08
2022-09-15T15:59:19.223Z,1.60
2022-09-15T16:01:52.391Z,1.75
2022-09-15T16:04:18.423Z,1.75
2022-09-15T16:06:45.164Z,1.63
2022-09-15T16:09:16.910Z,2.00
2022-09-15T16:11:42.734Z,1.80
2022-09-15T16:14:12.680Z,1.85
2022-09-15T16:16:38.509Z,2.45
2022-09-15T16:19:04.339Z,2.13
2022-09-15T16:21:36.899Z,1.67
2022-09-15T16:24:04.534Z,1.90
2022-09-15T16:26:30.786Z,1.67
2022-09-15T16:28:57.429Z,1.40
2022-09-15T16:31:23.358Z,2.00
2022-09-15T16:33:49.323Z,1.38
2022-09-15T16:36:17.356Z,1.40
2022-09-15T16:38:44.344Z,2.13
2022-09-15T16:41:18.877Z,1.40
2022-09-15T16:43:46.531Z,2.30
2022-09-15T16:46:13.344Z,1.95
2022-09-15T16:48:41.909Z,2.00
2022-09-15T16:51:25.195Z,2.05
2022-09-15T16:53:53.075Z,1.70
2022-09-15T16:56:19.007Z,1.90
2022-09-15T16:58:44.983Z,1.90
2022-09-15T17:01:18.977Z,1.80
2022-09-15T17:03:45.121Z,1.23
2022-09-15T17:06:16.969Z,1.85
2022-09-15T17:08:43.338Z,1.60
2022-09-15T17:11:16.747Z,2.17
2022-09-15T17:13:43.040Z,1.95
2022-09-15T17:16:09.890Z,2.00
2022-09-15T17:18:35.717Z,2.20
2022-09-15T17:21:01.724Z,1.95
2022-09-15T17:23:31.591Z,2.17
2022-09-15T17:26:00.368Z,2.15
2022-09-15T17:28:29.048Z,2.10
2022-09-15T17:31:00.316Z,2.15
2022-09-15T17:33:27.386Z,2.47
2022-09-15T17:35:53.362Z,2.35
2022-09-15T17:38:22.486Z,2.00
2022-09-15T17:40:49.774Z,2.30
2022-09-15T17:43:18.764Z,2.60
2022-09-15T17:45:45.303Z,2.33
2022-09-15T17:48:11.614Z,2.58
2022-09-15T17:50:39.100Z,2.35
2022-09-15T17:53:23.415Z,1.70
2022-09-15T17:55:50.218Z,2.25
2022-09-15T17:58:16.432Z,2.28
2022-09-15T18:00:43.331Z,2.38
2022-09-15T18:03:18.701Z,2.53
2022-09-15T18:05:44.886Z,1.75
2022-09-15T18:08:10.779Z,2.33
2022-09-15T18:10:36.837Z,2.33
2022-09-15T18:13:04.077Z,2.58
2022-09-15T18:15:32.331Z,2.45
2022-09-15T18:18:05.109Z,2.25
2022-09-15T18:20:32.919Z,1.75
2022-09-15T18:22:59.456Z,2.80
2022-09-15T18:25:31.459Z,2.80
2022-09-15T18:27:58.435Z,2.08
2022-09-15T18:30:27.978Z,2.53
2022-09-15T18:32:53.942Z,2.20
2022-09-15T18:35:20.577Z,1.90
2022-09-15T18:37:49.078Z,1.90
2022-09-15T18:40:17.226Z,2.15
2022-09-15T18:42:43.913Z,1.88
2022-09-15T18:45:12.994Z,2.08
2022-09-15T18:47:40.233Z,2.00
2022-09-15T18:50:06.445Z,1.67
2022-09-15T18:52:36.620Z,2.38
2022-09-15T18:55:04.381Z,2.05
2022-09-15T18:57:34.243Z,2.20
2022-09-15T19:00:00.419Z,2.22
2022-09-15T19:02:26.596Z,2.05
2022-09-15T19:04:52.731Z,2.03
2022-09-15T19:07:18.667Z,2.38
2022-09-15T19:09:44.538Z,2.70
2022-09-15T19:12:10.329Z,2.33
2022-09-15T19:14:36.124Z,1.80
2022-09-15T19:17:02.005Z,2.40
2022-09-15T19:19:28.027Z,2.90
2022-09-15T19:21:53.783Z,2.55
2022-09-15T19:24:19.646Z,2.53
2022-09-15T19:26:46.476Z,2.17
2022-09-15T19:29:13.235Z,2.00
2022-09-15T19:31:41.955Z,2.40
2022-09-15T19:34:08.432Z,1.88
2022-09-15T19:36:34.265Z,2.03
2022-09-15T19:39:02.475Z,2.45
2022-09-15T19:41:29.522Z,2.05
2022-09-15T19:43:55.445Z,2.10
2022-09-15T19:46:23.524Z,2.10
2022-09-15T19:48:50.440Z,2.10
2022-09-15T19:51:17.518Z,1.90
2022-09-15T19:53:44.586Z,2.00
2022-09-15T19:56:21.453Z,1.92
2022-09-15T19:58:48.483Z,1.63
2022-09-15T20:01:14.741Z,2.22
2022-09-15T20:03:40.577Z,1.85
2022-09-15T20:06:07.785Z,2.00
2022-09-15T20:08:35.322Z,1.65
2022-09-15T20:11:05.368Z,2.15
2022-09-15T20:13:31.678Z,2.05
2022-09-15T20:16:00.215Z,2.15
2022-09-15T20:18:27.175Z,1.80
2022-09-15T20:20:54.102Z,2.22
2022-09-15T20:23:20.803Z,2.13
2022-09-15T20:26:08.143Z,1.85
2022-09-15T20:28:35.502Z,1.98
2022-09-15T20:31:07.508Z,1.58
2022-09-15T20:33:34.952Z,2.00
2022-09-15T20:36:06.709Z,1.92
2022-09-15T20:38:34.224Z,1.48
2022-09-15T20:41:01.141Z,2.13
2022-09-15T20:43:27.323Z,1.63
2022-09-15T20:46:01.155Z,1.92
2022-09-15T20:48:29.615Z,1.52
2022-09-15T20:51:10.317Z,2.10
2022-09-15T20:53:37.906Z,2.13
2022-09-15T20:56:03.863Z,2.17
2022-09-15T20:58:33.760Z,1.63
2022-09-15T21:01:04.018Z,1.85
2022-09-15T21:03:30.130Z,1.80
2022-09-15T21:06:05.527Z,1.63
2022-09-15T21:08:31.687Z,2.17
2022-09-15T21:10:58.696Z,2.08
2022-09-15T21:13:28.383Z,1.38
2022-09-15T21:15:57.055Z,1.63
2022-09-15T21:18:28.358Z,1.77
2022-09-15T21:20:59.086Z,2.20
2022-09-15T21:23:25.855Z,1.70
2022-09-15T21:26:03.918Z,1.67
2022-09-15T21:28:30.279Z,1.80
2022-09-15T21:31:04.978Z,1.83
2022-09-15T21:33:31.579Z,2.03
2022-09-15T21:36:09.116Z,1.48
2022-09-15T21:38:40.610Z,1.70
2022-09-15T21:41:08.727Z,1.95
2022-09-15T21:43:36.930Z,2.15
2022-09-15T21:46:04.468Z,2.10
2022-09-15T21:48:32.143Z,1.77
2022-09-15T21:50:58.455Z,2.25
2022-09-15T21:53:24.350Z,1.90
2022-09-15T21:55:51.037Z,1.88
2022-09-15T21:58:21.717Z,2.25
2022-09-15T22:00:49.003Z,1.90
2022-09-15T22:03:15.865Z,1.70
2022-09-15T22:05:46.203Z,1.70
2022-09-15T22:08:15.501Z,2.17
2022-09-15T22:10:42.940Z,1.88
2022-09-15T22:13:10.489Z,1.73
2022-09-15T22:15:36.790Z,2.17
2022-09-15T22:18:03.207Z,1.67
2022-09-15T22:20:29.472Z,2.40
2022-09-15T22:22:55.885Z,3.10
2022-09-15T22:25:22.190Z,1.88
2022-09-15T22:27:47.951Z,2.28
2022-09-15T22:30:13.756Z,1.95
2022-09-15T22:32:39.554Z,1.60
2022-09-15T22:35:05.986Z,1.80
2022-09-15T22:37:33.110Z,1.98
2022-09-15T22:39:59.669Z,1.58
2022-09-15T22:42:25.895Z,1.70
2022-09-15T22:44:51.826Z,2.40
2022-09-15T22:47:18.026Z,1.45
2022-09-15T22:49:43.997Z,1.60
2022-09-15T22:52:10.295Z,1.65
2022-09-15T22:54:36.100Z,1.30
2022-09-15T22:57:02.276Z,1.73
2022-09-15T22:59:28.136Z,1.98
2022-09-15T23:01:54.385Z,1.40
2022-09-15T23:04:20.663Z,1.50
2022-09-15T23:06:48.256Z,1.83
2022-09-15T23:09:14.591Z,1.42
2022-09-15T23:11:41.050Z,1.70
2022-09-15T23:14:12.331Z,1.90
2022-09-15T23:16:38.214Z,1.88
2022-09-15T23:19:04.488Z,1.45
2022-09-15T23:21:30.361Z,1.58
2022-09-15T23:23:56.695Z,2.10
2022-09-15T23:26:26.219Z,1.63
2022-09-15T23:28:52.817Z,1.40
2022-09-15T23:31:19.482Z,1.58
2022-09-15T23:33:46.321Z,1.27
2022-09-15T23:36:16.114Z,1.75
2022-09-15T23:38:43.862Z,1.48
2022-09-15T23:41:13.722Z,1.83
2022-09-15T23:43:39.682Z,1.55
2022-09-15T23:46:06.267Z,1.92
2022-09-15T23:48:32.312Z,1.80
2022-09-15T23:50:58.276Z,2.17
2022-09-15T23:53:24.766Z,2.10
2022-09-15T23:55:50.560Z,2.13
2022-09-15T23:58:16.882Z,1.92
